createdAt,value
2022-12-10T00:00:05.765Z,100379.72
2022-12-10T00:02:32.252Z,100375.38
2022-12-10T00:04:58.724Z,100371.50
2022-12-10T00:07:25.273Z,100369.78
2022-12-10T00:09:51.643Z,100374.34
2022-12-10T00:12:18.037Z,100376.31
2022-12-10T00:14:44.419Z,100364.94
2022-12-10T00:17:13.045Z,100374.94
2022-12-10T00:19:39.676Z,100374.28
2022-12-10T00:22:06.043Z,100373.34
2022-12-10T00:24:32.394Z,100385.25
2022-12-10T00:26:58.785Z,100376.44
2022-12-10T00:29:25.099Z,100375.69
2022-12-10T00:31:51.532Z,100377.81
2022-12-10T00:34:17.965Z,100370.44
2022-12-10T00:36:45.711Z,100368.41
2022-12-10T00:39:16.090Z,100374.72
2022-12-10T00:41:42.454Z,100373.34
2022-12-10T00:44:08.905Z,100375.19
2022-12-10T00:46:35.362Z,100380.50
2022-12-10T00:49:02.110Z,100384.78
2022-12-10T00:51:28.749Z,100375.94
2022-12-10T00:53:55.931Z,100389.38
2022-12-10T00:56:23.539Z,100391.44
2022-12-10T00:58:50.353Z,100387.59
2022-12-10T01:01:16.673Z,100386.66
2022-12-10T01:03:43.701Z,100382.13
2022-12-10T01:06:15.608Z,100389.19
2022-12-10T01:08:42.629Z,100393.41
2022-12-10T01:11:09.989Z,100390.81
2022-12-10T01:13:36.367Z,100389.28
2022-12-10T01:16:03.901Z,100388.84
2022-12-10T01:18:30.367Z,100388.84
2022-12-10T01:21:00.720Z,100396.22
2022-12-10T01:23:27.171Z,100398.28
2022-12-10T01:25:53.552Z,100390.44
2022-12-10T01:28:19.939Z,100397.03
2022-12-10T01:30:46.330Z,100383.81
2022-12-10T01:33:12.662Z,100385.16
2022-12-10T01:35:38.990Z,100395.78
2022-12-10T01:38:05.427Z,100392.53
2022-12-10T01:40:32.153Z,100390.31
2022-12-10T01:43:00.479Z,100390.84
2022-12-10T01:45:27.177Z,100391.25
2022-12-10T01:47:53.582Z,100384.31
2022-12-10T01:50:19.946Z,100391.16
2022-12-10T01:52:46.353Z,100387.81
2022-12-10T01:55:31.598Z,100390.78
2022-12-10T01:57:57.909Z,100381.94
2022-12-10T02:00:24.316Z,100378.53
2022-12-10T02:02:55.997Z,100381.91
2022-12-10T02:05:28.939Z,100380.00
2022-12-10T02:07:55.363Z,100390.94
2022-12-10T02:10:31.028Z,100382.53
2022-12-10T02:12:57.375Z,100385.75
2022-12-10T02:15:26.643Z,100377.03
2022-12-10T02:17:58.509Z,100371.50
2022-12-10T02:20:37.595Z,100367.88
2022-12-10T02:23:06.369Z,100371.72
2022-12-10T02:25:42.164Z,100373.66
2022-12-10T02:28:13.210Z,100363.91
2022-12-10T02:30:40.281Z,100372.16
2022-12-10T02:33:08.067Z,100376.38
2022-12-10T02:35:36.174Z,100375.16
2022-12-10T02:38:12.127Z,100370.97
2022-12-10T02:40:40.928Z,100377.63
2022-12-10T02:43:07.418Z,100372.09
2022-12-10T02:45:34.621Z,100373.03
2022-12-10T02:48:03.073Z,100380.03
2022-12-10T02:50:29.531Z,100369.59
2022-12-10T02:52:55.901Z,100366.00
2022-12-10T02:55:22.396Z,100369.81
2022-12-10T02:57:51.795Z,100368.34
2022-12-10T03:00:19.432Z,100378.53
2022-12-10T03:02:54.954Z,100378.25
2022-12-10T03:05:25.642Z,100379.25
2022-12-10T03:08:02.381Z,100378.94
2022-12-10T03:10:33.071Z,100376.13
2022-12-10T03:13:00.779Z,100384.16
2022-12-10T03:15:29.226Z,100386.66
2022-12-10T03:17:56.369Z,100387.31
2022-12-10T03:20:24.032Z,100387.69
2022-12-10T03:22:50.498Z,100381.91
2022-12-10T03:25:20.027Z,100385.84
2022-12-10T03:27:50.815Z,100383.22
2022-12-10T03:30:17.226Z,100382.38
2022-12-10T03:32:44.200Z,100381.16
2022-12-10T03:35:11.986Z,100383.72
2022-12-10T03:37:38.405Z,100387.28
2022-12-10T03:40:06.278Z,100391.81
2022-12-10T03:42:33.023Z,100384.59
2022-12-10T03:44:59.380Z,100383.03
2022-12-10T03:47:25.843Z,100380.06
2022-12-10T03:49:52.230Z,100382.88
2022-12-10T03:52:18.640Z,100384.03
2022-12-10T03:54:45.113Z,100380.50
2022-12-10T03:57:11.483Z,100382.38
2022-12-10T03:59:37.877Z,100379.16
2022-12-10T04:02:04.286Z,100382.69
2022-12-10T04:04:31.011Z,100376.19
2022-12-10T04:06:57.527Z,100381.28
2022-12-10T04:09:23.956Z,100389.59
2022-12-10T04:11:50.491Z,100395.78
2022-12-10T04:14:35.706Z,100387.78
2022-12-10T04:17:02.180Z,100392.22
2022-12-10T04:19:28.700Z,100392.88
2022-12-10T04:22:13.837Z,100388.84
2022-12-10T04:24:59.022Z,100387.31
2022-12-10T04:27:25.393Z,100391.28
2022-12-10T04:29:51.764Z,100391.53
2022-12-10T04:32:18.851Z,100390.69
2022-12-10T04:34:45.229Z,100387.72
2022-12-10T04:37:14.707Z,100391.28
2022-12-10T04:39:41.167Z,100396.59
2022-12-10T04:42:07.906Z,100393.13
2022-12-10T04:44:34.596Z,100385.28
2022-12-10T04:47:01.280Z,100391.34
2022-12-10T04:49:27.816Z,100399.88
2022-12-10T04:51:54.605Z,100396.97
2022-12-10T04:54:21.144Z,100399.88
2022-12-10T04:56:47.660Z,100400.03
2022-12-10T04:59:14.368Z,100393.59
2022-12-10T05:01:40.913Z,100390.81
2022-12-10T05:04:08.570Z,100395.53
2022-12-10T05:06:35.220Z,100396.22
2022-12-10T05:09:02.024Z,100396.81
2022-12-10T05:11:29.364Z,100392.28
2022-12-10T05:13:56.197Z,100401.13
2022-12-10T05:16:23.239Z,100404.41
2022-12-10T05:18:50.328Z,100404.88
2022-12-10T05:21:18.282Z,100398.88
2022-12-10T05:23:46.106Z,100398.03
2022-12-10T05:26:20.070Z,100394.97
2022-12-10T05:28:48.065Z,100408.00
2022-12-10T05:31:16.018Z,100398.03
2022-12-10T05:33:42.447Z,100399.50
2022-12-10T05:36:10.131Z,100402.16
2022-12-10T05:38:36.509Z,100397.72
2022-12-10T05:41:07.083Z,100396.03
2022-12-10T05:43:33.521Z,100404.34
2022-12-10T05:46:04.042Z,100407.28
2022-12-10T05:48:30.519Z,100415.09
2022-12-10T05:50:57.194Z,100413.19
2022-12-10T05:53:24.143Z,100405.81
2022-12-10T05:55:50.526Z,100411.16
2022-12-10T05:58:16.906Z,100413.84
2022-12-10T06:00:43.314Z,100414.38
2022-12-10T06:03:09.802Z,100417.00
2022-12-10T06:05:39.770Z,100416.25
2022-12-10T06:08:06.335Z,100416.84
2022-12-10T06:10:34.691Z,100419.88
2022-12-10T06:13:01.060Z,100419.66
2022-12-10T06:15:27.548Z,100421.88
2022-12-10T06:17:55.102Z,100417.91
2022-12-10T06:20:21.593Z,100419.56
2022-12-10T06:22:48.048Z,100421.44
2022-12-10T06:25:14.731Z,100428.56
2022-12-10T06:27:41.108Z,100425.19
2022-12-10T06:30:08.174Z,100432.25
2022-12-10T06:32:34.826Z,100429.91
2022-12-10T06:35:01.195Z,100430.28
2022-12-10T06:37:27.702Z,100439.03
2022-12-10T06:39:54.165Z,100438.97
2022-12-10T06:42:20.851Z,100444.25
2022-12-10T06:44:47.564Z,100446.22
2022-12-10T06:47:14.734Z,100447.97
2022-12-10T06:49:41.432Z,100447.25
2022-12-10T06:52:08.205Z,100447.50
2022-12-10T06:54:40.225Z,100451.53
2022-12-10T06:57:06.882Z,100453.97
2022-12-10T06:59:37.588Z,100452.97
2022-12-10T07:02:04.223Z,100454.09
2022-12-10T07:04:30.795Z,100456.09
2022-12-10T07:06:59.639Z,100455.50
2022-12-10T07:09:26.389Z,100454.97
2022-12-10T07:11:52.992Z,100452.31
2022-12-10T07:14:19.555Z,100460.75
2022-12-10T07:16:46.337Z,100461.59
2022-12-10T07:19:28.582Z,100462.59
2022-12-10T07:22:33.756Z,100457.06
2022-12-10T07:31:28.947Z,100464.22
2022-12-10T07:33:55.718Z,100465.44
2022-12-10T07:36:23.745Z,100472.81
2022-12-10T07:38:56.366Z,100470.59
2022-12-10T07:41:26.892Z,100480.13
2022-12-10T07:44:12.179Z,100481.72
2022-12-10T07:46:38.997Z,100481.03
2022-12-10T07:49:06.168Z,100476.84
2022-12-10T07:51:32.674Z,100491.50
2022-12-10T07:53:59.060Z,100487.69
2022-12-10T07:56:25.638Z,100486.28
2022-12-10T07:58:52.480Z,100489.81
2022-12-10T08:01:20.642Z,100495.75
2022-12-10T08:03:47.175Z,100494.50
2022-12-10T08:06:15.156Z,100489.97
2022-12-10T08:08:42.259Z,100498.44
2022-12-10T08:11:09.386Z,100504.19
2022-12-10T08:13:36.518Z,100500.25
2022-12-10T08:16:11.360Z,100511.31
2022-12-10T08:18:38.557Z,100514.44
2022-12-10T08:21:06.578Z,100513.63
2022-12-10T08:23:33.110Z,100513.50
2022-12-10T08:26:00.061Z,100512.47
2022-12-10T08:28:26.438Z,100513.28
2022-12-10T08:30:52.815Z,100520.13
2022-12-10T08:33:21.057Z,100519.44
2022-12-10T08:35:47.451Z,100526.16
2022-12-10T08:38:13.891Z,100518.72
2022-12-10T08:40:41.625Z,100522.31
2022-12-10T08:43:13.494Z,100516.47
2022-12-10T08:45:40.115Z,100513.22
2022-12-10T08:48:06.571Z,100516.19
2022-12-10T08:50:33.295Z,100515.63
2022-12-10T08:53:16.134Z,100525.22
2022-12-10T08:56:03.342Z,100527.59
2022-12-10T08:58:32.071Z,100523.91
2022-12-10T09:01:00.280Z,100528.53
2022-12-10T09:03:26.834Z,100531.75
2022-12-10T09:05:53.581Z,100532.91
2022-12-10T09:08:24.331Z,100536.91
2022-12-10T09:10:50.843Z,100533.00
2022-12-10T09:13:17.342Z,100530.41
2022-12-10T09:15:49.877Z,100540.22
2022-12-10T09:18:16.299Z,100539.94
2022-12-10T09:20:42.771Z,100540.84
2022-12-10T09:23:13.013Z,100534.00
2022-12-10T09:25:39.579Z,100536.84
2022-12-10T09:28:06.117Z,100536.16
2022-12-10T09:30:32.651Z,100543.19
2022-12-10T09:32:59.207Z,100542.78
2022-12-10T09:35:28.664Z,100538.81
2022-12-10T09:37:55.129Z,100536.91
2022-12-10T09:40:30.825Z,100536.69
2022-12-10T09:43:02.575Z,100531.75
2022-12-10T09:45:45.882Z,100530.66
2022-12-10T09:48:33.674Z,100533.25
2022-12-10T09:51:00.088Z,100530.53
2022-12-10T09:53:29.360Z,100529.47
2022-12-10T09:55:55.911Z,100534.00
2022-12-10T09:58:29.570Z,100535.72
2022-12-10T10:01:01.505Z,100536.03
2022-12-10T10:03:35.100Z,100538.56
2022-12-10T10:06:09.419Z,100532.84
2022-12-10T10:08:38.992Z,100537.34
2022-12-10T10:11:05.559Z,100535.38
2022-12-10T10:13:37.158Z,100542.41
2022-12-10T10:16:22.419Z,100538.84
2022-12-10T10:18:54.896Z,100537.56
2022-12-10T10:21:26.446Z,100541.06
2022-12-10T10:23:53.318Z,100546.00
2022-12-10T10:26:19.765Z,100543.59
2022-12-10T10:28:47.070Z,100542.03
2022-12-10T10:31:23.666Z,100545.19
2022-12-10T10:33:57.287Z,100538.38
2022-12-10T10:36:28.463Z,100533.69
2022-12-10T10:38:54.938Z,100542.31
2022-12-10T10:41:21.467Z,100537.41
2022-12-10T10:43:48.945Z,100525.66
2022-12-10T10:46:16.641Z,100520.50
2022-12-10T10:48:46.524Z,100512.75
2022-12-10T10:51:24.411Z,100520.59
2022-12-10T10:53:58.229Z,100522.81
2022-12-10T10:56:41.289Z,100515.84
2022-12-10T10:59:07.624Z,100515.81
2022-12-10T11:01:48.158Z,100510.69
2022-12-10T11:04:19.114Z,100512.56
2022-12-10T11:06:55.457Z,100509.78
2022-12-10T11:09:23.269Z,100511.69
2022-12-10T11:11:59.133Z,100503.50
2022-12-10T11:14:25.495Z,100509.38
2022-12-10T11:17:00.710Z,100506.22
2022-12-10T11:19:30.489Z,100505.81
2022-12-10T11:22:15.865Z,100508.34
2022-12-10T11:24:42.616Z,100509.00
2022-12-10T11:27:14.581Z,100502.53
2022-12-10T11:29:48.631Z,100498.75
2022-12-10T11:32:37.920Z,100498.69
2022-12-10T11:35:33.798Z,100495.72
2022-12-10T11:38:07.335Z,100501.31
2022-12-10T11:40:49.697Z,100494.94
2022-12-10T11:43:26.739Z,100495.47
2022-12-10T11:46:11.776Z,100498.31
2022-12-10T11:48:47.517Z,100496.31
2022-12-10T11:51:20.710Z,100502.53
2022-12-10T11:54:05.969Z,100493.03
2022-12-10T11:56:34.757Z,100496.75
2022-12-10T11:59:10.349Z,100503.88
2022-12-10T12:01:56.638Z,100496.59
2022-12-10T12:04:34.233Z,100502.25
2022-12-10T12:07:11.852Z,100505.22
2022-12-10T12:09:41.148Z,100495.50
2022-12-10T12:12:12.874Z,100502.03
2022-12-10T12:14:47.447Z,100506.25
2022-12-10T12:17:46.428Z,100507.69
2022-12-10T12:20:15.792Z,100507.78
2022-12-10T12:22:44.697Z,100508.06
2022-12-10T12:25:21.373Z,100518.91
2022-12-10T12:28:01.135Z,100508.63
2022-12-10T12:30:27.566Z,100511.81
2022-12-10T12:33:01.008Z,100516.66
2022-12-10T12:35:49.268Z,100515.28
2022-12-10T12:38:28.604Z,100521.44
2022-12-10T12:41:02.466Z,100523.47
2022-12-10T12:43:37.970Z,100515.44
2022-12-10T12:46:10.498Z,100513.50
2022-12-10T12:48:47.384Z,100505.78
2022-12-10T12:51:32.327Z,100511.06
2022-12-10T12:53:58.894Z,100511.69
2022-12-10T12:56:55.834Z,100515.44
2022-12-10T12:59:40.489Z,100513.50
2022-12-10T13:02:19.159Z,100516.03
2022-12-10T13:04:45.829Z,100516.66
2022-12-10T13:07:15.236Z,100521.44
2022-12-10T13:09:45.522Z,100512.97
2022-12-10T13:12:27.234Z,100516.44
2022-12-10T13:15:17.102Z,100521.53
2022-12-10T13:18:02.198Z,100524.00
2022-12-10T13:20:28.708Z,100533.06
2022-12-10T13:23:05.721Z,100525.00
2022-12-10T13:25:40.918Z,100523.78
2022-12-10T13:28:26.080Z,100524.34
2022-12-10T13:31:11.277Z,100534.53
2022-12-10T13:33:46.629Z,100532.66
2022-12-10T13:36:13.034Z,100543.59
2022-12-10T13:38:41.074Z,100541.00
2022-12-10T13:41:26.133Z,100548.09
2022-12-10T13:44:15.324Z,100547.94
2022-12-10T13:47:00.287Z,100546.72
2022-12-10T13:49:28.836Z,100542.47
2022-12-10T13:51:59.990Z,100538.75
2022-12-10T13:54:37.924Z,100544.38
2022-12-10T13:59:53.972Z,100544.97
2022-12-10T14:02:23.513Z,100544.81
2022-12-10T14:04:55.962Z,100554.63
2022-12-10T14:07:22.721Z,100556.66
2022-12-10T14:09:53.978Z,100554.41
2022-12-10T14:12:32.605Z,100555.31
2022-12-10T14:15:06.080Z,100554.03
2022-12-10T14:17:34.311Z,100551.50
2022-12-10T14:20:01.500Z,100553.28
2022-12-10T14:22:44.466Z,100548.28
2022-12-10T14:28:13.104Z,100549.81
2022-12-10T14:30:43.431Z,100557.03
2022-12-10T14:33:14.225Z,100549.72
2022-12-10T14:35:41.355Z,100546.88
2022-12-10T14:38:18.049Z,100555.72
2022-12-10T14:40:47.458Z,100551.00
2022-12-10T14:43:21.886Z,100554.09
2022-12-10T14:45:49.705Z,100552.91
2022-12-10T14:48:17.525Z,100559.13
2022-12-10T14:50:44.488Z,100566.63
2022-12-10T14:53:21.123Z,100565.22
2022-12-10T14:55:54.272Z,100564.84
2022-12-10T14:58:42.336Z,100578.13
2022-12-10T15:01:20.082Z,100571.69
2022-12-10T15:03:47.532Z,100578.50
2022-12-10T15:06:16.604Z,100579.66
2022-12-10T15:08:43.732Z,100580.84
2022-12-10T15:11:15.350Z,100579.91
2022-12-10T15:13:43.326Z,100569.16
2022-12-10T15:16:42.334Z,100578.47
2022-12-10T15:19:15.095Z,100574.25
2022-12-10T15:21:42.593Z,100570.81
2022-12-10T15:24:15.161Z,100576.31
2022-12-10T15:26:43.673Z,100573.81
2022-12-10T15:29:28.860Z,100579.16
2022-12-10T15:32:00.383Z,100574.34
2022-12-10T15:34:28.240Z,100568.13
2022-12-10T15:36:56.616Z,100574.44
2022-12-10T15:39:27.907Z,100567.13
2022-12-10T15:41:56.245Z,100572.69
2022-12-10T15:44:28.768Z,100576.94
2022-12-10T15:47:07.340Z,100570.94
2022-12-10T15:49:36.152Z,100579.88
2022-12-10T15:52:03.421Z,100581.44
2022-12-10T15:54:41.122Z,100584.59
2022-12-10T15:57:14.759Z,100584.81
2022-12-10T15:59:42.182Z,100595.69
2022-12-10T16:02:25.289Z,100582.50
2022-12-10T16:04:51.813Z,100590.44
2022-12-10T16:07:18.885Z,100586.28
2022-12-10T16:09:45.800Z,100582.31
2022-12-10T16:12:13.292Z,100586.19
2022-12-10T16:14:41.580Z,100587.38
2022-12-10T16:17:08.170Z,100584.72
2022-12-10T16:19:44.474Z,100579.41
2022-12-10T16:22:10.896Z,100583.19
2022-12-10T16:24:40.725Z,100581.03
2022-12-10T16:27:15.681Z,100583.94
2022-12-10T16:29:42.753Z,100585.56
2022-12-10T16:32:15.581Z,100583.56
2022-12-10T16:34:42.284Z,100586.31
2022-12-10T16:37:11.723Z,100588.00
2022-12-10T16:39:38.470Z,100588.91
2022-12-10T16:42:04.910Z,100585.34
2022-12-10T16:44:31.266Z,100593.22
2022-12-10T16:46:59.019Z,100595.75
2022-12-10T16:49:25.508Z,100591.44
2022-12-10T16:51:52.481Z,100597.91
2022-12-10T16:54:18.994Z,100597.63
2022-12-10T16:56:46.801Z,100592.66
2022-12-10T16:59:13.264Z,100600.88
2022-12-10T17:01:39.851Z,100598.09
2022-12-10T17:04:06.338Z,100604.28
2022-12-10T17:06:32.745Z,100611.44
2022-12-10T17:08:59.271Z,100601.50
2022-12-10T17:11:46.391Z,100610.66
2022-12-10T17:14:33.278Z,100604.41
2022-12-10T17:17:00.717Z,100598.94
2022-12-10T17:19:45.515Z,100601.00
2022-12-10T17:22:12.227Z,100609.03
2022-12-10T17:24:38.875Z,100608.69
2022-12-10T17:27:35.697Z,100604.44
2022-12-10T17:30:05.808Z,100608.22
2022-12-10T17:32:32.836Z,100602.34
2022-12-10T17:34:59.708Z,100606.25
2022-12-10T17:37:26.569Z,100606.13
2022-12-10T17:39:53.010Z,100598.47
2022-12-10T17:42:20.252Z,100601.69
2022-12-10T17:44:52.739Z,100605.69
2022-12-10T17:47:26.768Z,100611.22
2022-12-10T17:49:55.935Z,100608.00
2022-12-10T17:52:25.458Z,100609.69
2022-12-10T17:54:51.935Z,100606.72
2022-12-10T17:57:22.292Z,100606.97
2022-12-10T17:59:48.929Z,100609.47
2022-12-10T18:02:15.532Z,100608.06
2022-12-10T18:04:42.115Z,100614.19
2022-12-10T18:07:13.150Z,100620.56
2022-12-10T18:09:40.505Z,100618.75
2022-12-10T18:12:07.578Z,100617.16
2022-12-10T18:14:34.384Z,100627.84
2022-12-10T18:17:00.965Z,100618.38
2022-12-10T18:19:27.674Z,100620.28
2022-12-10T18:21:55.666Z,100623.00
2022-12-10T18:24:26.078Z,100624.44
2022-12-10T18:26:52.529Z,100619.69
2022-12-10T18:29:19.038Z,100624.53
2022-12-10T18:31:45.555Z,100629.63
2022-12-10T18:34:12.974Z,100620.94
2022-12-10T18:36:41.006Z,100628.00
2022-12-10T18:39:14.029Z,100627.97
2022-12-10T18:41:40.923Z,100633.22
2022-12-10T18:44:07.362Z,100626.56
2022-12-10T18:46:36.260Z,100633.16
2022-12-10T18:49:02.851Z,100632.03
2022-12-10T18:51:29.251Z,100635.69
2022-12-10T18:53:56.019Z,100639.31
2022-12-10T18:56:23.662Z,100634.59
2022-12-10T18:58:50.367Z,100639.97
2022-12-10T19:01:20.062Z,100644.13
2022-12-10T19:03:48.725Z,100640.13
2022-12-10T19:06:16.605Z,100644.38
2022-12-10T19:09:10.001Z,100638.88
2022-12-10T19:11:29.369Z,100648.78
2022-12-10T19:13:55.874Z,100644.59
2022-12-10T19:16:23.922Z,100651.00
2022-12-10T19:18:51.314Z,100651.97
2022-12-10T19:21:18.314Z,100638.78
2022-12-10T19:23:45.018Z,100651.16
2022-12-10T19:26:30.512Z,100646.63
2022-12-10T19:29:01.102Z,100639.56
2022-12-10T19:31:27.800Z,100649.81
2022-12-10T19:34:36.586Z,100643.84
2022-12-10T19:37:08.280Z,100645.88
2022-12-10T19:39:38.718Z,100648.31
2022-12-10T19:42:05.560Z,100649.22
2022-12-10T19:44:35.667Z,100651.13
2022-12-10T19:47:08.509Z,100650.00
2022-12-10T19:49:41.622Z,100652.97
2022-12-10T19:52:33.880Z,100655.72
2022-12-10T19:56:04.093Z,100661.63
2022-12-10T19:58:33.644Z,100662.09
2022-12-10T20:01:09.090Z,100657.47
2022-12-10T20:03:37.754Z,100656.53
2022-12-10T20:10:14.258Z,100658.50
2022-12-10T20:19:47.037Z,100651.97
2022-12-10T20:26:00.679Z,100654.44
2022-12-10T20:32:30.139Z,100655.72
2022-12-10T20:49:43.202Z,100656.47
2022-12-10T21:01:58.492Z,100661.16
2022-12-10T21:17:20.050Z,100646.06
2022-12-10T21:36:18.269Z,100645.72
2022-12-10T21:38:45.251Z,100650.22
2022-12-10T21:41:43.137Z,100651.56
2022-12-10T21:44:10.299Z,100648.25
2022-12-10T21:46:37.094Z,100644.16
2022-12-10T21:49:10.784Z,100650.19
2022-12-10T21:51:42.904Z,100642.16
2022-12-10T21:54:09.663Z,100642.00
2022-12-10T21:56:36.970Z,100645.44
2022-12-10T22:12:23.201Z,100635.41
2022-12-10T22:15:09.471Z,100628.25
2022-12-10T22:17:36.936Z,100633.94
2022-12-10T22:20:04.611Z,100630.31
2022-12-10T22:22:32.026Z,100616.75
2022-12-10T22:24:58.564Z,100609.72
2022-12-10T22:27:25.020Z,100617.03
2022-12-10T22:29:51.750Z,100620.41
2022-12-10T22:32:18.272Z,100613.75
2022-12-10T22:34:45.716Z,100616.84
2022-12-10T22:37:12.384Z,100630.97
2022-12-10T22:39:38.799Z,100631.34
2022-12-10T22:42:05.245Z,100626.69
2022-12-10T22:44:31.681Z,100621.94
2022-12-10T22:46:58.155Z,100612.31
2022-12-10T22:49:24.639Z,100609.53
2022-12-10T22:51:50.980Z,100610.44
2022-12-10T22:54:17.538Z,100616.31
2022-12-10T22:56:44.078Z,100619.41
2022-12-10T22:59:13.450Z,100604.84
2022-12-10T23:01:43.105Z,100598.75
2022-12-10T23:04:09.973Z,100604.19
2022-12-10T23:06:36.624Z,100605.75
2022-12-10T23:09:03.082Z,100610.19
2022-12-10T23:11:29.526Z,100607.63
2022-12-10T23:13:57.224Z,100606.50
2022-12-10T23:16:44.451Z,100605.19
2022-12-10T23:19:11.237Z,100611.84
2022-12-10T23:21:37.685Z,100607.91
2022-12-10T23:24:06.689Z,100617.69
2022-12-10T23:26:34.348Z,100612.19
2022-12-10T23:29:01.992Z,100619.13
2022-12-10T23:31:28.561Z,100615.72
2022-12-10T23:33:54.983Z,100618.09
2022-12-10T23:36:21.326Z,100605.34
2022-12-10T23:38:47.831Z,100609.97
2022-12-10T23:41:14.654Z,100608.88
2022-12-10T23:43:41.087Z,100607.81
2022-12-10T23:46:09.772Z,100601.16
2022-12-10T23:48:36.567Z,100606.22
2022-12-10T23:51:02.994Z,100600.19
2022-12-10T23:53:29.731Z,100597.03
2022-12-10T23:55:56.662Z,100595.53
2022-12-10T23:58:23.605Z,100601.28
